Aérodrome :
LOGIN :

S'inscrire | Disclaimer

   EN    FR    IT 

 










Légende :    VFR   VFR Marginal   IFR   IFR Intensif   IFR Très Intensif
Visi : 
Plafond : 
>= 8 km
>= 3000ft
5 à 8 km
1000 à 3000 ft
1500m à 5 km
500 à 1000 ft
800 à 1500m
200 à 500 ft
< 800m
< 200 ft
Symboles :   Orages  Brouillard  Fortes neiges  Fortes précipitations  Vent > 20 kt
SIGMETs :   Divers  Orages  Givrage  Turbulence  Onde Orograph.  Cendres Volcan.






- Altitude de l'aérodrome : 93 ft
- Code IATA : HDF


EDAH - Heringsdorf

DERNIER METAR :
  • 260550Z AUTO 05004KT 9999 // FEW130/// SCT180/// 18/16 Q1018

METARs EXPIRÉS :
  • 260520Z AUTO 06003KT 020V080 9999 // BKN130/// 17/15 Q1018
  • 260450Z AUTO VRB02KT 9999 // BKN100/// BKN130/// 15/15 Q1018
  • 260420Z AUTO 04003KT 9999 // SCT100/// BKN140/// 15/14 Q1018
  • 260350Z AUTO 05002KT 9999 // BKN120/// BKN140/// 14/14 Q1018
  • 260320Z AUTO 05003KT 020V100 9000 // BKN120/// BKN140/// 14/13 Q1018
  • 260250Z AUTO 02003KT 9999 // NCD 13/13 Q1018
  • 260220Z AUTO 35002KT 9999 // NCD 13/13 Q1018
  • 260150Z AUTO VRB01KT 9999 // FEW240/// 14/13 Q1018
  • 260120Z AUTO VRB03KT 9999 // BKN110/// 14/13 Q1018

TAF TAF EDAH
Valide du 26 à 06h jusqu'au 26 à 15h UTC


260500Z 2606/2615 04004KT CAVOK
BECMG 2606/2609 10005KT
TEMPO 2612/2615 4000 SHRA SCT035CB
PROB30
TEMPO 2613/2615 18015G25KT 2800 TSRA BKN030CB



MET'MAP, la Météo Aéronautique d'un coup d'oeil ! - Copyright ORBIFLY Décembre 2007 - Disclaimer

ORBIFLY MET'MAP TEAM :

Programmation & Développement : Alexandra Zaïnal
Sur une idée originale de : Baudouin d'Aumeries
Soutien technique & logistique : Manuel Goepfert
Assistance : Marc-Olivier Méhu




SOURCES & CREDITS :

   NOAA